Mc Donald, Ohio
Current Conditions -  °F | °C
As of 1:51 AM on Saturday 25 Oct 2014 (Local Time) from KYNG Reporting Station
Overcast Overcast  
Wind Chill: 49°   Ceiling: 4200
Heat Index: 49°   Visibility: 10mi
Dew Point: 41°   Wind: 3mph
Humidity: 74%   Direction: 210°SSW
Pressure: 29.98"   Gusts: NA
Location:  41.1587°N, 80.7233°W
Report Text: KYNG 250551Z 21003KT 10SM OVC042 09/05 A2998 RMK AO2 SLP152 T00940050 10111 20078 58005 $
Loading
Personal Weather Stations






























Interactive Weather Map
Tropical Storm Tracking
New forecast layout! Learn more

10-Day Weather Forecast

Advertisements
Track Severe Weather on mobile